sensor_id;sensor_type;location;lat;lon;timestamp;pressure;altitude;pressure_sealevel;temperature;humidity
62980;BME280;49075;53.988;27.678;2023-04-01T00:00:59;969.4;;;1.9;85.1
62980;BME280;49075;53.988;27.678;2023-04-01T00:06:20;969.4;;;1.9;85.2
62980;BME280;49075;53.988;27.678;2023-04-01T00:11:06;969.3;;;1.9;85.3
62980;BME280;49075;53.988;27.678;2023-04-01T00:16:12;969.2;;;1.9;85.8
62980;BME280;49075;53.988;27.678;2023-04-01T00:21:20;969.2;;;1.9;85.8
62980;BME280;49075;53.988;27.678;2023-04-01T00:26:10;969.3;;;1.8;86.5
62980;BME280;49075;53.988;27.678;2023-04-01T00:31:20;969.2;;;1.7;86.2
62980;BME280;49075;53.988;27.678;2023-04-01T00:36:07;969.2;;;1.6;86.9
62980;BME280;49075;53.988;27.678;2023-04-01T00:41:30;969.2;;;1.8;85.8
62980;BME280;49075;53.988;27.678;2023-04-01T00:45:58;969.2;;;1.9;85.4
62980;BME280;49075;53.988;27.678;2023-04-01T00:50:59;969.2;;;1.9;85.2
62980;BME280;49075;53.988;27.678;2023-04-01T00:56:13;969.1;;;2;85.3
62980;BME280;49075;53.988;27.678;2023-04-01T01:00:58;969.1;;;2;85.2
62980;BME280;49075;53.988;27.678;2023-04-01T01:06:03;969.1;;;2;85.3
62980;BME280;49075;53.988;27.678;2023-04-01T01:11:12;969.1;;;2;85.5
62980;BME280;49075;53.988;27.678;2023-04-01T01:16:09;969.1;;;2;85.7
62980;BME280;49075;53.988;27.678;2023-04-01T01:21:26;969.1;;;2.1;85.4
62980;BME280;49075;53.988;27.678;2023-04-01T01:26:12;969.1;;;2;85.8
62980;BME280;49075;53.988;27.678;2023-04-01T01:30:59;969.1;;;2.1;85.4
62980;BME280;49075;53.988;27.678;2023-04-01T01:36:12;969.1;;;2.1;85.8
62980;BME280;49075;53.988;27.678;2023-04-01T01:40:58;969.1;;;2.2;85.4
62980;BME280;49075;53.988;27.678;2023-04-01T01:45:59;969.1;;;2.2;85.6
62980;BME280;49075;53.988;27.678;2023-04-01T01:51:05;969.1;;;2.3;85.2
62980;BME280;49075;53.988;27.678;2023-04-01T01:56:27;969.1;;;2.2;85.5
62980;BME280;49075;53.988;27.678;2023-04-01T02:00:59;969.2;;;2.2;85.5
62980;BME280;49075;53.988;27.678;2023-04-01T02:05:59;969.2;;;2.1;86.2
62980;BME280;49075;53.988;27.678;2023-04-01T02:10:59;969.2;;;2.3;85.7
62980;BME280;49075;53.988;27.678;2023-04-01T02:16:07;969.2;;;2.2;86.2
62980;BME280;49075;53.988;27.678;2023-04-01T02:21:12;969.1;;;2.3;85.8
62980;BME280;49075;53.988;27.678;2023-04-01T02:26:07;969.1;;;2.4;85.6
62980;BME280;49075;53.988;27.678;2023-04-01T02:31:07;969;;;2.4;85.3
62980;BME280;49075;53.988;27.678;2023-04-01T02:36:22;969.1;;;2.4;85.2
62980;BME280;49075;53.988;27.678;2023-04-01T02:40:59;969.1;;;2.3;85.3
62980;BME280;49075;53.988;27.678;2023-04-01T02:46:20;969.2;;;2.3;85.4
62980;BME280;49075;53.988;27.678;2023-04-01T02:51:07;969.2;;;2.1;86.1
62980;BME280;49075;53.988;27.678;2023-04-01T02:55:58;969.2;;;2.1;86.2
62980;BME280;49075;53.988;27.678;2023-04-01T03:01:12;969.2;;;2.1;86.2
62980;BME280;49075;53.988;27.678;2023-04-01T03:06:05;969.2;;;2.1;85.9
62980;BME280;49075;53.988;27.678;2023-04-01T03:11:12;969.2;;;2.2;85.6
62980;BME280;49075;53.988;27.678;2023-04-01T03:15:58;969.2;;;2.3;85.2
62980;BME280;49075;53.988;27.678;2023-04-01T03:21:13;969.1;;;2.4;85.1
62980;BME280;49075;53.988;27.678;2023-04-01T03:26:18;969;;;2.4;84.9
62980;BME280;49075;53.988;27.678;2023-04-01T03:30:58;969;;;2.5;84.8
62980;BME280;49075;53.988;27.678;2023-04-01T03:35:58;969.2;;;2.5;84.7
62980;BME280;49075;53.988;27.678;2023-04-01T03:40:58;969.1;;;2.4;84.7
62980;BME280;49075;53.988;27.678;2023-04-01T03:46:06;969.1;;;2.4;84.6
62980;BME280;49075;53.988;27.678;2023-04-01T03:51:12;969.1;;;2.5;84.5
62980;BME280;49075;53.988;27.678;2023-04-01T03:55:58;969.2;;;2.4;84.4
62980;BME280;49075;53.988;27.678;2023-04-01T04:01:13;969.2;;;2.2;84.6
62980;BME280;49075;53.988;27.678;2023-04-01T04:06:04;969.3;;;2.1;84.6
62980;BME280;49075;53.988;27.678;2023-04-01T04:11:21;969.3;;;2.1;84.6
62980;BME280;49075;53.988;27.678;2023-04-01T04:15:58;969.3;;;2;84.8
62980;BME280;49075;53.988;27.678;2023-04-01T04:21:04;969.4;;;1.9;85.1
62980;BME280;49075;53.988;27.678;2023-04-01T04:26:27;969.4;;;1.8;85.2
62980;BME280;49075;53.988;27.678;2023-04-01T04:31:04;969.4;;;1.9;84.8
62980;BME280;49075;53.988;27.678;2023-04-01T04:35:58;969.4;;;2;84.9
62980;BME280;49075;53.988;27.678;2023-04-01T04:41:17;969.3;;;2.1;84.7
62980;BME280;49075;53.988;27.678;2023-04-01T04:45:58;969.2;;;2.2;84.9
62980;BME280;49075;53.988;27.678;2023-04-01T04:51:13;969.3;;;2.3;84.5
62980;BME280;49075;53.988;27.678;2023-04-01T04:56:12;969.3;;;2.3;84.7
62980;BME280;49075;53.988;27.678;2023-04-01T05:00:58;969.4;;;2.3;84.6
62980;BME280;49075;53.988;27.678;2023-04-01T05:05:58;969.4;;;2.2;85
62980;BME280;49075;53.988;27.678;2023-04-01T05:11:06;969.4;;;2.1;85.3
62980;BME280;49075;53.988;27.678;2023-04-01T05:15:58;969.4;;;2.3;85.2
62980;BME280;49075;53.988;27.678;2023-04-01T05:20:58;969.3;;;2.7;84.7
62980;BME280;49075;53.988;27.678;2023-04-01T05:25:58;969.2;;;3;84.6
62980;BME280;49075;53.988;27.678;2023-04-01T05:31:12;969.2;;;3.3;84.3
62980;BME280;49075;53.988;27.678;2023-04-01T05:36:05;969.2;;;3.9;83.8
62980;BME280;49075;53.988;27.678;2023-04-01T05:41:12;969.2;;;4.1;83
62980;BME280;49075;53.988;27.678;2023-04-01T05:46:18;969.2;;;4.2;82.8
62980;BME280;49075;53.988;27.678;2023-04-01T05:51:11;969.3;;;4.3;82.3
62980;BME280;49075;53.988;27.678;2023-04-01T05:56:10;969.4;;;4;82
62980;BME280;49075;53.988;27.678;2023-04-01T06:01:00;969.4;;;3.9;82.4
62980;BME280;49075;53.988;27.678;2023-04-01T06:06:13;969.4;;;3.9;82.6
62980;BME280;49075;53.988;27.678;2023-04-01T06:11:01;969.3;;;4.1;82.5
62980;BME280;49075;53.988;27.678;2023-04-01T06:16:00;969.3;;;4.6;82.1
62980;BME280;49075;53.988;27.678;2023-04-01T06:21:27;969.3;;;5;81.4
62980;BME280;49075;53.988;27.678;2023-04-01T06:26:01;969.2;;;5.3;80.9
62980;BME280;49075;53.988;27.678;2023-04-01T06:31:12;969.2;;;5.2;80.5
62980;BME280;49075;53.988;27.678;2023-04-01T06:36:02;969.2;;;5.3;80.8
62980;BME280;49075;53.988;27.678;2023-04-01T06:41:11;969.3;;;5.4;80.5
62980;BME280;49075;53.988;27.678;2023-04-01T06:45:59;969.3;;;5.5;80.3
62980;BME280;49075;53.988;27.678;2023-04-01T06:51:09;969.4;;;5.5;80.2
62980;BME280;49075;53.988;27.678;2023-04-01T06:56:19;969.4;;;5.4;80.2
62980;BME280;49075;53.988;27.678;2023-04-01T07:01:20;969.4;;;5.4;80.2
62980;BME280;49075;53.988;27.678;2023-04-01T07:06:14;969.4;;;5.7;80.3
62980;BME280;49075;53.988;27.678;2023-04-01T07:11:22;969.5;;;6;79.7
62980;BME280;49075;53.988;27.678;2023-04-01T07:16:21;969.5;;;6.7;79.3
62980;BME280;49075;53.988;27.678;2023-04-01T07:21:25;969.4;;;6.9;77.9
62980;BME280;49075;53.988;27.678;2023-04-01T07:26:15;969.4;;;7;78.1
62980;BME280;49075;53.988;27.678;2023-04-01T07:31:01;969.5;;;6.9;77.3
62980;BME280;49075;53.988;27.678;2023-04-01T07:35:59;969.7;;;6.5;77.8
62980;BME280;49075;53.988;27.678;2023-04-01T07:41:08;969.7;;;6;77.7
62980;BME280;49075;53.988;27.678;2023-04-01T07:46:16;969.7;;;5.8;78.6
62980;BME280;49075;53.988;27.678;2023-04-01T07:51:14;969.7;;;5.7;78.8
62980;BME280;49075;53.988;27.678;2023-04-01T07:56:01;969.8;;;5.8;78.9
62980;BME280;49075;53.988;27.678;2023-04-01T08:00:59;969.8;;;5.8;79
62980;BME280;49075;53.988;27.678;2023-04-01T08:06:14;969.8;;;5.7;79.1
62980;BME280;49075;53.988;27.678;2023-04-01T08:11:22;969.8;;;5.5;79.5
62980;BME280;49075;53.988;27.678;2023-04-01T08:16:20;969.9;;;5.4;79.8
62980;BME280;49075;53.988;27.678;2023-04-01T08:21:08;969.9;;;5.3;80.2
62980;BME280;49075;53.988;27.678;2023-04-01T08:26:09;970;;;5.2;80.8
62980;BME280;49075;53.988;27.678;2023-04-01T08:31:13;970;;;5.2;80.6
62980;BME280;49075;53.988;27.678;2023-04-01T08:35:59;970;;;5.1;81
62980;BME280;49075;53.988;27.678;2023-04-01T08:41:09;970.1;;;5;81.4
62980;BME280;49075;53.988;27.678;2023-04-01T08:46:14;970;;;5.1;81.4
62980;BME280;49075;53.988;27.678;2023-04-01T08:51:09;970;;;5.2;80.9
62980;BME280;49075;53.988;27.678;2023-04-01T08:56:17;969.9;;;5.2;81
62980;BME280;49075;53.988;27.678;2023-04-01T09:01:03;969.9;;;5.3;81
62980;BME280;49075;53.988;27.678;2023-04-01T09:06:11;969.9;;;5.3;81
62980;BME280;49075;53.988;27.678;2023-04-01T09:11:11;969.9;;;5.3;81.1
62980;BME280;49075;53.988;27.678;2023-04-01T09:16:27;969.9;;;5.4;80.7
62980;BME280;49075;53.988;27.678;2023-04-01T09:21:03;969.8;;;5.4;80.8
62980;BME280;49075;53.988;27.678;2023-04-01T09:26:24;969.7;;;5.4;80.9
62980;BME280;49075;53.988;27.678;2023-04-01T09:31:17;969.8;;;5.5;81
62980;BME280;49075;53.988;27.678;2023-04-01T09:36:02;969.7;;;5.6;81.1
62980;BME280;49075;53.988;27.678;2023-04-01T09:41:07;969.8;;;5.7;80.8
62980;BME280;49075;53.988;27.678;2023-04-01T09:46:09;969.8;;;5.7;80.6
62980;BME280;49075;53.988;27.678;2023-04-01T09:51:16;969.8;;;5.8;80.5
62980;BME280;49075;53.988;27.678;2023-04-01T09:56:12;969.8;;;5.8;80.4
62980;BME280;49075;53.988;27.678;2023-04-01T10:01:23;969.9;;;5.8;80.4
62980;BME280;49075;53.988;27.678;2023-04-01T10:06:17;970;;;5.7;80.3
62980;BME280;49075;53.988;27.678;2023-04-01T10:11:04;970;;;5.6;80.3
62980;BME280;49075;53.988;27.678;2023-04-01T10:16:23;970.1;;;5.4;80.3
62980;BME280;49075;53.988;27.678;2023-04-01T10:21:25;970.1;;;5.2;80.3
62980;BME280;49075;53.988;27.678;2023-04-01T10:26:19;970.1;;;5.1;80.4
62980;BME280;49075;53.988;27.678;2023-04-01T10:31:13;970.1;;;5.1;80.5
62980;BME280;49075;53.988;27.678;2023-04-01T10:36:25;970.1;;;5.2;80.5
62980;BME280;49075;53.988;27.678;2023-04-01T10:40:57;970.1;;;5.2;80.3
62980;BME280;49075;53.988;27.678;2023-04-01T10:46:00;970.1;;;5.2;80.4
62980;BME280;49075;53.988;27.678;2023-04-01T10:51:49;970.1;;;5.2;80.5
62980;BME280;49075;53.988;27.678;2023-04-01T10:56:06;970.1;;;5.3;80.3
62980;BME280;49075;53.988;27.678;2023-04-01T11:01:22;970.2;;;5.2;80.5
62980;BME280;49075;53.988;27.678;2023-04-01T11:11:18;970.3;;;4.9;81.4
62980;BME280;49075;53.988;27.678;2023-04-01T11:16:30;970.3;;;4.5;82.8
62980;BME280;49075;53.988;27.678;2023-04-01T11:21:02;970.2;;;4.7;82.6
62980;BME280;49075;53.988;27.678;2023-04-01T11:26:00;970.2;;;4.7;82.7
62980;BME280;49075;53.988;27.678;2023-04-01T11:31:18;970.2;;;4.7;82.7
62980;BME280;49075;53.988;27.678;2023-04-01T11:36:20;970.2;;;4.7;83.3
62980;BME280;49075;53.988;27.678;2023-04-01T11:41:22;970.3;;;4.6;83.5
62980;BME280;49075;53.988;27.678;2023-04-01T11:46:19;970.2;;;4.6;84.1
62980;BME280;49075;53.988;27.678;2023-04-01T11:51:24;970.2;;;4.7;83.9
62980;BME280;49075;53.988;27.678;2023-04-01T11:56:15;970.3;;;4.8;84
62980;BME280;49075;53.988;27.678;2023-04-01T12:01:06;970.3;;;5.1;83.5
62980;BME280;49075;53.988;27.678;2023-04-01T12:06:05;970.3;;;5.1;83.9
62980;BME280;49075;53.988;27.678;2023-04-01T12:11:06;970.3;;;5;84.8
62980;BME280;49075;53.988;27.678;2023-04-01T12:16:00;970.3;;;5;84.9
62980;BME280;49075;53.988;27.678;2023-04-01T12:20:57;970.3;;;5;85.1
62980;BME280;49075;53.988;27.678;2023-04-01T12:26:00;970.3;;;5.2;85.2
62980;BME280;49075;53.988;27.678;2023-04-01T12:31:20;970.3;;;5.4;84.5
62980;BME280;49075;53.988;27.678;2023-04-01T12:36:08;970.4;;;5.5;84.4
62980;BME280;49075;53.988;27.678;2023-04-01T12:41:08;970.4;;;5.5;84.4
62980;BME280;49075;53.988;27.678;2023-04-01T12:46:13;970.4;;;5.4;84.9
62980;BME280;49075;53.988;27.678;2023-04-01T12:51:08;970.4;;;5.6;84.4
62980;BME280;49075;53.988;27.678;2023-04-01T12:56:19;970.5;;;5.6;84.4
62980;BME280;49075;53.988;27.678;2023-04-01T13:01:27;970.5;;;5.7;84.2
62980;BME280;49075;53.988;27.678;2023-04-01T13:06:06;970.6;;;5.4;85
62980;BME280;49075;53.988;27.678;2023-04-01T13:11:02;970.6;;;5.3;85.7
62980;BME280;49075;53.988;27.678;2023-04-01T13:16:00;970.6;;;5.3;85.8
62980;BME280;49075;53.988;27.678;2023-04-01T13:21:13;970.6;;;5.5;85.1
62980;BME280;49075;53.988;27.678;2023-04-01T13:26:22;970.7;;;5.5;85.2
62980;BME280;49075;53.988;27.678;2023-04-01T13:31:08;970.7;;;5.5;85
62980;BME280;49075;53.988;27.678;2023-04-01T13:36:19;970.7;;;5.5;84.9
62980;BME280;49075;53.988;27.678;2023-04-01T13:41:05;970.9;;;5.5;85
62980;BME280;49075;53.988;27.678;2023-04-01T13:46:34;970.9;;;5.4;85.5
62980;BME280;49075;53.988;27.678;2023-04-01T13:51:02;970.9;;;5.5;85.2
62980;BME280;49075;53.988;27.678;2023-04-01T13:56:15;970.9;;;5.4;85.8
62980;BME280;49075;53.988;27.678;2023-04-01T14:01:15;970.9;;;5.5;85.2
62980;BME280;49075;53.988;27.678;2023-04-01T14:06:02;970.9;;;5.3;86.2
62980;BME280;49075;53.988;27.678;2023-04-01T14:11:02;970.9;;;5.2;86.3
62980;BME280;49075;53.988;27.678;2023-04-01T14:16:03;971;;;5.1;87.1
62980;BME280;49075;53.988;27.678;2023-04-01T14:21:23;971;;;5.1;87.2
62980;BME280;49075;53.988;27.678;2023-04-01T14:26:09;971;;;5.1;87.3
62980;BME280;49075;53.988;27.678;2023-04-01T14:31:13;971;;;5.2;86.4
62980;BME280;49075;53.988;27.678;2023-04-01T14:36:23;971;;;5.1;87.4
62980;BME280;49075;53.988;27.678;2023-04-01T14:41:26;971.1;;;5.2;86.7
62980;BME280;49075;53.988;27.678;2023-04-01T14:46:04;971.1;;;5.2;86.8
62980;BME280;49075;53.988;27.678;2023-04-01T14:51:02;971.1;;;5.3;86.1
62980;BME280;49075;53.988;27.678;2023-04-01T14:55:59;971.1;;;5.1;87.1
62980;BME280;49075;53.988;27.678;2023-04-01T15:01:25;971.1;;;5.2;86.8
62980;BME280;49075;53.988;27.678;2023-04-01T15:06:34;971.1;;;5.1;87.4
62980;BME280;49075;53.988;27.678;2023-04-01T15:11:27;971.2;;;5.2;86.7
62980;BME280;49075;53.988;27.678;2023-04-01T15:16:01;971.1;;;5.2;86.9
62980;BME280;49075;53.988;27.678;2023-04-01T15:21:22;971.1;;;5.3;86.4
62980;BME280;49075;53.988;27.678;2023-04-01T15:26:33;971.2;;;5.2;86.7
62980;BME280;49075;53.988;27.678;2023-04-01T15:31:19;971.2;;;5.1;87.1
62980;BME280;49075;53.988;27.678;2023-04-01T15:36:01;971.3;;;5.1;87
62980;BME280;49075;53.988;27.678;2023-04-01T15:41:39;971.3;;;5.1;87.2
62980;BME280;49075;53.988;27.678;2023-04-01T15:46:08;971.3;;;5.1;87.5
62980;BME280;49075;53.988;27.678;2023-04-01T15:51:23;971.3;;;5.2;87
62980;BME280;49075;53.988;27.678;2023-04-01T15:55:59;971.4;;;5.1;87.7
62980;BME280;49075;53.988;27.678;2023-04-01T16:01:02;971.4;;;5.2;87.2
62980;BME280;49075;53.988;27.678;2023-04-01T16:06:11;971.4;;;5.1;87.9
62980;BME280;49075;53.988;27.678;2023-04-01T16:11:08;971.5;;;5.1;87.8
62980;BME280;49075;53.988;27.678;2023-04-01T16:16:24;971.5;;;5.2;87.4
62980;BME280;49075;53.988;27.678;2023-04-01T16:21:00;971.5;;;5.3;86.8
62980;BME280;49075;53.988;27.678;2023-04-01T16:26:01;971.6;;;5.3;86.9
62980;BME280;49075;53.988;27.678;2023-04-01T16:31:13;971.6;;;5.3;87
62980;BME280;49075;53.988;27.678;2023-04-01T16:35:59;971.6;;;5.3;86.7
62980;BME280;49075;53.988;27.678;2023-04-01T16:41:07;971.6;;;5.4;86.6
62980;BME280;49075;53.988;27.678;2023-04-01T16:46:13;971.7;;;5.2;87.7
62980;BME280;49075;53.988;27.678;2023-04-01T16:50:59;971.7;;;5.2;87.5
62980;BME280;49075;53.988;27.678;2023-04-01T16:56:38;971.7;;;5.3;87.2
62980;BME280;49075;53.988;27.678;2023-04-01T17:01:32;971.7;;;5.4;86.6
62980;BME280;49075;53.988;27.678;2023-04-01T17:06:17;971.7;;;5.4;86.6
62980;BME280;49075;53.988;27.678;2023-04-01T17:10:59;971.7;;;5.5;86.5
62980;BME280;49075;53.988;27.678;2023-04-01T17:16:01;971.7;;;5.4;86.6
62980;BME280;49075;53.988;27.678;2023-04-01T17:21:22;971.8;;;5.4;86.5
62980;BME280;49075;53.988;27.678;2023-04-01T17:26:17;971.8;;;5.5;86.4
62980;BME280;49075;53.988;27.678;2023-04-01T17:31:07;971.8;;;5.5;86.3
62980;BME280;49075;53.988;27.678;2023-04-01T17:36:40;971.8;;;5.5;86.2
62980;BME280;49075;53.988;27.678;2023-04-01T17:41:00;971.8;;;5.5;86.2
62980;BME280;49075;53.988;27.678;2023-04-01T17:46:01;971.9;;;5.4;86.3
62980;BME280;49075;53.988;27.678;2023-04-01T17:51:03;971.9;;;5.4;86.5
62980;BME280;49075;53.988;27.678;2023-04-01T17:56:12;971.9;;;5.4;86.4
62980;BME280;49075;53.988;27.678;2023-04-01T18:01:49;971.9;;;5.4;86.8
62980;BME280;49075;53.988;27.678;2023-04-01T18:06:01;971.9;;;5.4;86.3
62980;BME280;49075;53.988;27.678;2023-04-01T18:11:13;972;;;5.4;86.5
62980;BME280;49075;53.988;27.678;2023-04-01T18:16:23;972;;;5.5;86.1
62980;BME280;49075;53.988;27.678;2023-04-01T18:21:06;972;;;5.5;86
62980;BME280;49075;53.988;27.678;2023-04-01T18:26:02;972.1;;;5.5;85.8
62980;BME280;49075;53.988;27.678;2023-04-01T18:31:03;972.1;;;5.5;86
62980;BME280;49075;53.988;27.678;2023-04-01T18:36:02;972.1;;;5.5;85.9
62980;BME280;49075;53.988;27.678;2023-04-01T18:41:10;972.1;;;5.5;86.2
62980;BME280;49075;53.988;27.678;2023-04-01T18:46:05;972.1;;;5.5;86.1
62980;BME280;49075;53.988;27.678;2023-04-01T18:51:10;972.1;;;5.4;86.5
62980;BME280;49075;53.988;27.678;2023-04-01T18:56:09;972.1;;;5.4;86.3
62980;BME280;49075;53.988;27.678;2023-04-01T19:01:23;972.1;;;5.4;86.7
62980;BME280;49075;53.988;27.678;2023-04-01T19:06:21;972.1;;;5.4;86.6
62980;BME280;49075;53.988;27.678;2023-04-01T19:11:21;972.2;;;5.3;86.8
62980;BME280;49075;53.988;27.678;2023-04-01T19:16:37;972.2;;;5.3;86.9
62980;BME280;49075;53.988;27.678;2023-04-01T19:20:59;972.2;;;5.2;87
62980;BME280;49075;53.988;27.678;2023-04-01T19:25:59;972.2;;;5.2;87.1
62980;BME280;49075;53.988;27.678;2023-04-01T19:30:59;972.2;;;5.1;87.2
62980;BME280;49075;53.988;27.678;2023-04-01T19:36:00;972.3;;;5.1;87.2
62980;BME280;49075;53.988;27.678;2023-04-01T19:41:26;972.3;;;5.1;87.2
62980;BME280;49075;53.988;27.678;2023-04-01T19:46:01;972.3;;;5.1;87.8
62980;BME280;49075;53.988;27.678;2023-04-01T19:50:59;972.3;;;5.1;87.6
62980;BME280;49075;53.988;27.678;2023-04-01T19:56:00;972.4;;;4.9;88.4
62980;BME280;49075;53.988;27.678;2023-04-01T20:00:57;972.4;;;5.1;87.5
62980;BME280;49075;53.988;27.678;2023-04-01T20:06:33;972.4;;;5;87.8
62980;BME280;49075;53.988;27.678;2023-04-01T20:11:01;972.4;;;5;87.5
62980;BME280;49075;53.988;27.678;2023-04-01T20:16:09;972.4;;;5;87.7
62980;BME280;49075;53.988;27.678;2023-04-01T20:21:18;972.4;;;5.1;87
62980;BME280;49075;53.988;27.678;2023-04-01T20:26:13;972.5;;;5;87.5
62980;BME280;49075;53.988;27.678;2023-04-01T20:31:01;972.5;;;5.1;86.9
62980;BME280;49075;53.988;27.678;2023-04-01T20:36:20;972.6;;;5.1;87.4
62980;BME280;49075;53.988;27.678;2023-04-01T20:41:11;972.6;;;5.2;86.5
62980;BME280;49075;53.988;27.678;2023-04-01T20:45:59;972.6;;;5.2;86.8
62980;BME280;49075;53.988;27.678;2023-04-01T20:51:30;972.6;;;5.1;87
62980;BME280;49075;53.988;27.678;2023-04-01T20:56:23;972.7;;;5;87.3
62980;BME280;49075;53.988;27.678;2023-04-01T21:01:01;972.7;;;5;87.2
62980;BME280;49075;53.988;27.678;2023-04-01T21:06:03;972.7;;;5;87.3
62980;BME280;49075;53.988;27.678;2023-04-01T21:11:07;972.7;;;4.9;87.7
62980;BME280;49075;53.988;27.678;2023-04-01T21:16:02;972.7;;;4.9;87.5
62980;BME280;49075;53.988;27.678;2023-04-01T21:21:11;972.8;;;4.9;87.7
62980;BME280;49075;53.988;27.678;2023-04-01T21:26:12;972.8;;;4.8;87.8
62980;BME280;49075;53.988;27.678;2023-04-01T21:31:14;972.8;;;4.8;87.8
62980;BME280;49075;53.988;27.678;2023-04-01T21:36:08;972.8;;;4.9;87.6
62980;BME280;49075;53.988;27.678;2023-04-01T21:41:17;972.8;;;4.9;87.3
62980;BME280;49075;53.988;27.678;2023-04-01T21:46:05;972.8;;;4.9;87.5
62980;BME280;49075;53.988;27.678;2023-04-01T21:51:05;972.8;;;5;87.1
62980;BME280;49075;53.988;27.678;2023-04-01T21:56:04;972.9;;;5;87.2
62980;BME280;49075;53.988;27.678;2023-04-01T22:01:16;972.9;;;5.1;86.9
62980;BME280;49075;53.988;27.678;2023-04-01T22:06:15;972.9;;;5.1;87.2
62980;BME280;49075;53.988;27.678;2023-04-01T22:11:21;972.9;;;5.2;86.9
62980;BME280;49075;53.988;27.678;2023-04-01T22:16:00;972.9;;;5.2;87
62980;BME280;49075;53.988;27.678;2023-04-01T22:21:12;973;;;5.3;86.7
62980;BME280;49075;53.988;27.678;2023-04-01T22:26:05;973;;;5.4;86.6
62980;BME280;49075;53.988;27.678;2023-04-01T22:31:22;973.1;;;5.4;86.4
62980;BME280;49075;53.988;27.678;2023-04-01T22:36:00;973.1;;;5.5;86.5
62980;BME280;49075;53.988;27.678;2023-04-01T22:41:17;973.1;;;5.5;86.2
62980;BME280;49075;53.988;27.678;2023-04-01T22:46:19;973;;;5.4;86.1
62980;BME280;49075;53.988;27.678;2023-04-01T22:51:15;973;;;5.4;85.9
62980;BME280;49075;53.988;27.678;2023-04-01T22:56:08;973;;;5.4;85.8
62980;BME280;49075;53.988;27.678;2023-04-01T23:01:18;973;;;5.5;85.6
62980;BME280;49075;53.988;27.678;2023-04-01T23:06:10;973;;;5.5;85.6
62980;BME280;49075;53.988;27.678;2023-04-01T23:11:25;973;;;5.5;85.5
62980;BME280;49075;53.988;27.678;2023-04-01T23:15:57;973;;;5.5;85.4
62980;BME280;49075;53.988;27.678;2023-04-01T23:21:22;973;;;5.5;85.3
62980;BME280;49075;53.988;27.678;2023-04-01T23:26:04;973;;;5.5;85.1
62980;BME280;49075;53.988;27.678;2023-04-01T23:31:03;973.1;;;5.5;84.9
62980;BME280;49075;53.988;27.678;2023-04-01T23:35:57;973.2;;;5.4;84.8
62980;BME280;49075;53.988;27.678;2023-04-01T23:41:05;973.2;;;5.4;84.9
62980;BME280;49075;53.988;27.678;2023-04-01T23:46:21;973.2;;;5.4;84.7
62980;BME280;49075;53.988;27.678;2023-04-01T23:51:03;973.2;;;5.4;84.8
62980;BME280;49075;53.988;27.678;2023-04-01T23:56:33;973.2;;;5.4;84.7
